Time;durP1;ratioP1;P1;durP2;ratioP2;P2;SDS_P1;SDS_P2;PMS_P1;PMS_P2;Temp;Humidity;BMP_temperature;BMP_pressure;BME280_temperature;BME280_humidity;BME280_pressure;Samples;Min_cycle;Max_cycle;Signal;HPM_P1;HPM_P2
2023/08/13 00:01:21;;;;;;;;;;;;;;;21.52;48.10;99998.41;3152638;28;19924;-71
2023/08/13 00:02:53;;;;;;;;;;;;;;;21.50;48.31;99995.91;3152807;28;20347;-71
2023/08/13 00:04:25;;;;;;;;;;;;;;;21.53;47.93;99997.41;3152519;28;19923;-71
2023/08/13 00:05:57;;;;;;;;;;;;;;;21.56;47.78;99994.50;3148459;28;19935;-71
2023/08/13 00:07:27;;;;;;;;;;;;;;;21.58;47.92;99998.69;3152574;28;19931;-71
2023/08/13 00:08:59;;;;;;;;;;;;;;;21.58;47.89;100004.00;3152508;28;19923;-71
2023/08/13 00:10:30;;;;;;;;;;;;;;;21.59;47.93;99999.53;3152607;28;19923;-71
2023/08/13 00:12:01;;;;;;;;;;;;;;;21.58;47.95;99993.38;3151791;28;20389;-72
2023/08/13 00:13:32;;;;;;;;;;;;;;;21.57;48.03;100001.50;3141473;28;19931;-71
2023/08/13 00:15:04;;;;;;;;;;;;;;;21.60;48.02;99987.13;3147544;28;19924;-71
2023/08/13 00:16:35;;;;;;;;;;;;;;;21.63;47.73;99990.34;3152889;28;19924;-71
2023/08/13 00:18:06;;;;;;;;;;;;;;;21.67;47.54;99988.25;3127893;28;20025;-71
2023/08/13 00:19:39;;;;;;;;;;;;;;;21.71;47.54;99992.28;3148466;28;20023;-71
2023/08/13 00:21:10;;;;;;;;;;;;;;;21.74;47.47;99992.03;3150763;28;20359;-71
2023/08/13 00:22:41;;;;;;;;;;;;;;;21.74;47.26;99987.59;3152733;28;20116;-71
2023/08/13 00:24:12;;;;;;;;;;;;;;;21.74;47.32;99992.88;3152427;28;20382;-71
2023/08/13 00:25:43;;;;;;;;;;;;;;;21.75;47.27;99991.91;3152388;28;20006;-71
2023/08/13 00:27:14;;;;;;;;;;;;;;;21.77;47.30;99997.09;3149025;28;19977;-70
2023/08/13 00:28:46;;;;;;;;;;;;;;;21.75;47.35;99988.41;3152752;28;20002;-71
2023/08/13 00:30:17;;;;;;;;;;;;;;;21.75;47.24;99991.91;3144662;28;19936;-71
2023/08/13 00:31:49;;;;;;;;;;;;;;;21.73;47.24;99991.19;3144715;28;20046;-71
2023/08/13 00:33:20;;;;;;;;;;;;;;;21.70;47.46;99990.63;3147552;28;19981;-71
2023/08/13 00:34:53;;;;;;;;;;;;;;;21.68;47.43;99992.56;3147501;28;19986;-71
2023/08/13 00:36:24;;;;;;;;;;;;;;;21.67;47.52;100001.50;3152189;28;20026;-71
2023/08/13 00:37:55;;;;;;;;;;;;;;;21.64;47.60;99988.53;3144687;28;19924;-71
2023/08/13 00:39:26;;;;;;;;;;;;;;;21.63;47.39;99992.16;3152316;28;19928;-71
2023/08/13 00:40:58;;;;;;;;;;;;;;;21.60;47.27;99984.47;3144500;28;19978;-71
2023/08/13 00:42:28;;;;;;;;;;;;;;;21.61;47.82;99981.69;3152617;28;19981;-71
2023/08/13 00:44:00;;;;;;;;;;;;;;;21.60;47.51;99984.47;3143127;28;20090;-71
2023/08/13 00:45:31;;;;;;;;;;;;;;;21.59;47.71;99988.91;3151295;28;20042;-71
2023/08/13 00:47:03;;;;;;;;;;;;;;;21.60;47.43;99992.44;3151919;28;20337;-71
2023/08/13 00:48:37;;;;;;;;;;;;;;;21.61;47.59;99986.16;3152376;28;19924;-71
2023/08/13 00:50:10;;;;;;;;;;;;;;;21.60;47.51;99990.63;3149271;28;19985;-70
2023/08/13 00:51:42;;;;;;;;;;;;;;;21.62;47.36;99990.47;3152778;28;19954;-71
2023/08/13 00:53:13;;;;;;;;;;;;;;;21.64;47.21;99985.88;3152445;28;19934;-71
2023/08/13 00:54:45;;;;;;;;;;;;;;;21.64;47.26;99986.72;3146580;28;19979;-71
2023/08/13 00:56:16;;;;;;;;;;;;;;;21.65;47.39;99987.53;3146331;28;19924;-71
2023/08/13 00:57:47;;;;;;;;;;;;;;;21.65;47.38;99988.41;3152410;28;19924;-71
2023/08/13 00:59:18;;;;;;;;;;;;;;;21.68;47.16;99988.13;3152100;28;19927;-71
2023/08/13 01:00:50;;;;;;;;;;;;;;;21.69;47.23;99995.09;3152462;28;20075;-72
2023/08/13 01:02:21;;;;;;;;;;;;;;;21.70;47.20;99993.28;3152560;28;19928;-71
2023/08/13 01:03:52;;;;;;;;;;;;;;;21.69;47.23;99991.63;3147982;28;20019;-72
2023/08/13 01:05:33;;;;;;;;;;;;;;;21.67;47.19;99993.56;3152297;28;19923;-71
2023/08/13 01:07:12;;;;;;;;;;;;;;;21.67;47.08;99994.38;3154461;28;19934;-71
2023/08/13 01:08:50;;;;;;;;;;;;;;;21.66;47.24;99998.03;3153077;28;19974;-71
2023/08/13 01:10:28;;;;;;;;;;;;;;;21.66;47.40;99995.38;3154841;28;20408;-71
2023/08/13 01:12:02;;;;;;;;;;;;;;;21.67;47.24;99997.03;3143095;28;19925;-71
2023/08/13 01:13:36;;;;;;;;;;;;;;;21.67;47.27;99999.69;3145163;28;19944;-71
2023/08/13 01:15:08;;;;;;;;;;;;;;;21.67;47.30;99994.38;3154589;28;20023;-72
2023/08/13 01:16:42;;;;;;;;;;;;;;;21.63;47.36;100003.59;3154734;28;19923;-71
2023/08/13 01:18:13;;;;;;;;;;;;;;;21.60;47.55;99998.56;3150528;28;19924;-71
2023/08/13 01:19:45;;;;;;;;;;;;;;;21.58;47.61;100004.00;3154291;28;20076;-71
2023/08/13 01:21:17;;;;;;;;;;;;;;;21.60;47.31;99997.72;3154675;28;19935;-71
2023/08/13 01:22:50;;;;;;;;;;;;;;;21.60;47.20;100000.38;3149459;28;20019;-71
2023/08/13 01:24:21;;;;;;;;;;;;;;;21.61;47.35;100002.03;3153665;28;19974;-71
2023/08/13 01:25:56;;;;;;;;;;;;;;;21.62;47.27;100003.72;3154748;28;19927;-71
2023/08/13 01:27:34;;;;;;;;;;;;;;;21.63;47.27;100010.72;3154216;28;19988;-71
2023/08/13 01:29:10;;;;;;;;;;;;;;;21.65;47.17;100004.31;3142750;28;19932;-71
2023/08/13 01:30:44;;;;;;;;;;;;;;;21.65;47.25;100003.44;3141870;28;19928;-71
2023/08/13 01:32:17;;;;;;;;;;;;;;;21.65;47.24;100006.97;3151159;28;19935;-71
2023/08/13 01:33:49;;;;;;;;;;;;;;;21.65;47.33;99998.13;3148812;28;19932;-71
2023/08/13 01:35:22;;;;;;;;;;;;;;;21.62;47.37;100001.91;3154428;28;20009;-71
2023/08/13 01:36:54;;;;;;;;;;;;;;;21.62;47.34;100009.84;3149153;28;19931;-71
2023/08/13 01:38:26;;;;;;;;;;;;;;;21.63;47.46;100002.75;3149403;28;19924;-72
2023/08/13 01:39:58;;;;;;;;;;;;;;;21.62;47.26;100001.91;3154000;28;19924;-72
2023/08/13 01:41:42;;;;;;;;;;;;;;;21.63;47.52;100014.19;3152475;28;19924;-72
2023/08/13 01:43:14;;;;;;;;;;;;;;;21.65;47.31;100001.66;3151746;28;19924;-71
2023/08/13 01:44:44;;;;;;;;;;;;;;;21.67;47.23;100005.00;3146263;28;19924;-72
2023/08/13 01:46:16;;;;;;;;;;;;;;;21.68;47.48;100005.81;3154250;28;19924;-72
2023/08/13 01:47:48;;;;;;;;;;;;;;;21.64;47.41;100007.91;3148634;28;19930;-72
2023/08/13 01:49:19;;;;;;;;;;;;;;;21.60;47.56;99997.72;3154483;28;20487;-71
2023/08/13 01:50:50;;;;;;;;;;;;;;;21.55;47.71;100006.06;3151547;28;20015;-71
2023/08/13 01:52:21;;;;;;;;;;;;;;;21.50;48.05;100010.94;3154156;28;19935;-71
2023/08/13 01:53:54;;;;;;;;;;;;;;;21.43;48.13;100010.63;3154559;28;19924;-71
2023/08/13 01:55:26;;;;;;;;;;;;;;;21.35;48.29;100005.13;3129565;28;19925;-72
2023/08/13 01:56:56;;;;;;;;;;;;;;;21.28;48.41;100007.47;3153253;28;19947;-72
2023/08/13 01:58:28;;;;;;;;;;;;;;;21.26;48.70;100009.41;3154155;28;19923;-72
2023/08/13 01:59:58;;;;;;;;;;;;;;;21.20;48.71;100014.41;3148844;28;19999;-71
2023/08/13 02:01:30;;;;;;;;;;;;;;;21.15;48.89;100009.53;3150842;28;19924;-71
2023/08/13 02:03:01;;;;;;;;;;;;;;;21.12;49.16;100015.09;3149855;28;19936;-72
2023/08/13 02:04:32;;;;;;;;;;;;;;;21.09;49.20;100013.53;3153275;28;19959;-71
2023/08/13 02:06:03;;;;;;;;;;;;;;;21.10;49.03;100011.72;3148218;28;19974;-71
2023/08/13 02:07:34;;;;;;;;;;;;;;;21.10;48.96;100015.19;3154135;28;20020;-72
2023/08/13 02:09:07;;;;;;;;;;;;;;;21.12;48.94;100015.91;3154198;28;20392;-72
2023/08/13 02:10:38;;;;;;;;;;;;;;;21.14;48.83;100021.91;3154202;28;19931;-71
2023/08/13 02:12:09;;;;;;;;;;;;;;;21.16;48.96;100013.00;3153945;28;19985;-72
2023/08/13 02:13:41;;;;;;;;;;;;;;;21.16;48.74;100021.78;3153633;28;20424;-71
2023/08/13 02:15:11;;;;;;;;;;;;;;;21.19;48.59;100023.34;3154170;28;19988;-72
2023/08/13 02:16:43;;;;;;;;;;;;;;;21.20;48.65;100025.00;3149524;28;20082;-72
2023/08/13 02:18:13;;;;;;;;;;;;;;;21.20;48.65;100025.00;3153993;28;19923;-72
2023/08/13 02:19:45;;;;;;;;;;;;;;;21.22;48.39;100029.19;3143250;28;19977;-72
2023/08/13 02:21:16;;;;;;;;;;;;;;;21.23;48.58;100027.38;3153938;28;19938;-72
2023/08/13 02:22:48;;;;;;;;;;;;;;;21.21;48.64;100029.31;3153549;28;19976;-71
2023/08/13 02:24:20;;;;;;;;;;;;;;;21.19;48.49;100023.34;3153864;28;20298;-72
2023/08/13 02:25:52;;;;;;;;;;;;;;;21.19;48.71;100021.50;3154194;28;20018;-72
2023/08/13 02:27:24;;;;;;;;;;;;;;;21.18;48.49;100022.50;3154107;28;19932;-71
2023/08/13 02:28:55;;;;;;;;;;;;;;;21.14;48.72;100035.13;3153671;28;19924;-72
2023/08/13 02:30:26;;;;;;;;;;;;;;;21.12;48.65;100029.16;3153968;28;19977;-72
2023/08/13 02:31:57;;;;;;;;;;;;;;;21.08;48.86;100033.03;3149513;28;19947;-72
2023/08/13 02:33:29;;;;;;;;;;;;;;;21.05;49.01;100035.94;3149808;28;19924;-72
2023/08/13 02:34:59;;;;;;;;;;;;;;;21.02;48.86;100028.25;3153693;28;19924;-71
2023/08/13 02:36:31;;;;;;;;;;;;;;;21.00;49.01;100032.84;3153640;28;19947;-71
2023/08/13 02:38:01;;;;;;;;;;;;;;;20.98;48.97;100026.00;3147455;28;20464;-72
2023/08/13 02:39:34;;;;;;;;;;;;;;;20.96;49.00;100035.88;3153420;28;20060;-72
2023/08/13 02:41:05;;;;;;;;;;;;;;;20.95;49.04;100027.09;3151568;28;19924;-72
2023/08/13 02:42:36;;;;;;;;;;;;;;;20.95;48.97;100034.22;3153791;28;19931;-72
2023/08/13 02:44:07;;;;;;;;;;;;;;;20.93;49.01;100031.69;3143668;28;20397;-72
2023/08/13 02:45:39;;;;;;;;;;;;;;;20.90;49.02;100031.94;3141090;28;19985;-72
2023/08/13 02:47:09;;;;;;;;;;;;;;;20.87;49.20;100027.75;3148188;28;20411;-72
2023/08/13 02:48:41;;;;;;;;;;;;;;;20.86;49.09;100030.53;3152325;28;19931;-72
2023/08/13 02:50:11;;;;;;;;;;;;;;;20.86;49.20;100034.00;3153499;28;19928;-72
2023/08/13 02:51:43;;;;;;;;;;;;;;;20.86;49.10;100030.53;3153696;28;20030;-72
2023/08/13 02:53:14;;;;;;;;;;;;;;;20.86;49.36;100027.88;3153652;28;20461;-71
2023/08/13 02:54:47;;;;;;;;;;;;;;;20.83;49.25;100028.16;3153817;28;19985;-72
2023/08/13 02:56:18;;;;;;;;;;;;;;;20.83;49.28;100028.16;3147518;28;19924;-72
2023/08/13 02:57:49;;;;;;;;;;;;;;;20.80;49.49;100034.53;3147187;28;20387;-73
2023/08/13 02:59:20;;;;;;;;;;;;;;;20.77;49.62;100034.78;3153117;28;19924;-72
2023/08/13 03:00:52;;;;;;;;;;;;;;;20.75;49.46;100033.25;3147113;28;19924;-72
2023/08/13 03:02:24;;;;;;;;;;;;;;;20.70;49.73;100032.78;3144276;28;19928;-72
2023/08/13 03:03:54;;;;;;;;;;;;;;;20.66;49.91;100027.75;3149022;28;20430;-72
2023/08/13 03:05:27;;;;;;;;;;;;;;;20.64;49.77;100036.78;3153411;28;19923;-72
2023/08/13 03:06:58;;;;;;;;;;;;;;;20.62;49.79;100036.91;3153311;28;19975;-72
2023/08/13 03:08:30;;;;;;;;;;;;;;;20.64;49.66;100039.41;3153547;28;19924;-73
2023/08/13 03:10:03;;;;;;;;;;;;;;;20.64;49.55;100040.25;3153797;28;19923;-72
2023/08/13 03:11:35;;;;;;;;;;;;;;;20.65;49.63;100035.81;3155419;28;19920;-72
2023/08/13 03:13:05;;;;;;;;;;;;;;;20.65;49.57;100038.47;3153615;28;19924;-73
2023/08/13 03:14:37;;;;;;;;;;;;;;;20.64;49.53;100032.31;3151427;28;20010;-72
2023/08/13 03:16:08;;;;;;;;;;;;;;;20.66;49.53;100034.84;3150304;28;19946;-72
2023/08/13 03:17:39;;;;;;;;;;;;;;;20.67;49.64;100033.88;3153651;28;19923;-72
2023/08/13 03:19:11;;;;;;;;;;;;;;;20.64;49.63;100040.25;3153078;28;19924;-72
2023/08/13 03:20:41;;;;;;;;;;;;;;;20.63;49.69;100037.75;3153434;28;20114;-72
2023/08/13 03:22:13;;;;;;;;;;;;;;;20.61;49.88;100031.72;3153234;28;20417;-72
2023/08/13 03:23:44;;;;;;;;;;;;;;;20.61;49.60;100035.22;3152927;28;19949;-72
2023/08/13 03:25:17;;;;;;;;;;;;;;;20.61;49.61;100034.38;3153363;28;20419;-73
2023/08/13 03:26:47;;;;;;;;;;;;;;;20.60;49.60;100040.66;3153437;28;19928;-72
2023/08/13 03:28:19;;;;;;;;;;;;;;;20.59;49.71;100039.81;3152756;28;19967;-73
2023/08/13 03:29:50;;;;;;;;;;;;;;;20.59;49.75;100039.81;3146304;28;20289;-73
2023/08/13 03:31:21;;;;;;;;;;;;;;;20.59;49.80;100033.69;3153166;28;19924;-72
2023/08/13 03:32:52;;;;;;;;;;;;;;;20.57;49.71;100031.16;3148877;28;19928;-72
2023/08/13 03:34:23;;;;;;;;;;;;;;;20.58;49.78;100032.81;3153345;28;19935;-72
2023/08/13 03:35:54;;;;;;;;;;;;;;;20.60;49.74;100033.56;3153098;28;20286;-73
2023/08/13 03:37:26;;;;;;;;;;;;;;;20.59;49.77;100037.16;3147772;28;19985;-72
2023/08/13 03:38:57;;;;;;;;;;;;;;;20.60;49.51;100035.34;3151571;28;19981;-72
2023/08/13 03:40:29;;;;;;;;;;;;;;;20.60;49.52;100036.19;3152993;28;19931;-72
2023/08/13 03:42:01;;;;;;;;;;;;;;;20.60;49.75;100038.00;3150332;28;19928;-72
2023/08/13 03:43:31;;;;;;;;;;;;;;;20.62;49.62;100031.63;3147183;28;19924;-71
2023/08/13 03:45:03;;;;;;;;;;;;;;;20.63;49.60;100032.47;3147948;28;19989;-72
2023/08/13 03:46:33;;;;;;;;;;;;;;;20.64;49.63;100039.41;3152920;28;19924;-72
2023/08/13 03:48:05;;;;;;;;;;;;;;;20.64;49.57;100034.13;3153077;28;19931;-72
2023/08/13 03:49:36;;;;;;;;;;;;;;;20.66;49.43;100037.50;3152852;28;20006;-72
2023/08/13 03:51:07;;;;;;;;;;;;;;;20.65;49.55;100036.66;3148793;28;19931;-72
2023/08/13 03:52:38;;;;;;;;;;;;;;;20.67;49.53;100033.88;3143430;28;19928;-72
2023/08/13 03:54:09;;;;;;;;;;;;;;;20.67;49.46;100033.88;3153200;28;20007;-72
2023/08/13 03:55:41;;;;;;;;;;;;;;;20.69;49.62;100042.53;3153180;28;20200;-72
2023/08/13 03:57:13;;;;;;;;;;;;;;;20.68;49.72;100041.69;3151332;28;19934;-72
2023/08/13 03:58:44;;;;;;;;;;;;;;;20.70;49.61;100041.53;3148900;28;20328;-72
2023/08/13 04:00:15;;;;;;;;;;;;;;;20.71;49.53;100045.06;3145612;28;19924;-72
2023/08/13 04:01:47;;;;;;;;;;;;;;;20.72;49.81;100036.97;3152522;28;19946;-72
2023/08/13 04:03:19;;;;;;;;;;;;;;;20.74;49.76;100045.63;3152622;28;19981;-72
2023/08/13 04:04:50;;;;;;;;;;;;;;;20.74;49.95;100042.16;3152824;28;20011;-72
2023/08/13 04:06:22;;;;;;;;;;;;;;;20.75;49.81;100047.31;3152367;28;20333;-72
2023/08/13 04:07:52;;;;;;;;;;;;;;;20.76;49.75;100042.84;3153195;28;19946;-72
2023/08/13 04:09:24;;;;;;;;;;;;;;;20.78;49.81;100048.84;3153069;28;19924;-72
2023/08/13 04:10:56;;;;;;;;;;;;;;;20.79;49.70;100046.06;3152650;28;19923;-72
2023/08/13 04:12:27;;;;;;;;;;;;;;;20.83;49.74;100054.63;3146761;28;20034;-72
2023/08/13 04:13:58;;;;;;;;;;;;;;;20.85;49.72;100052.66;3148492;28;19935;-72
2023/08/13 04:15:30;;;;;;;;;;;;;;;20.86;49.57;100047.25;3152776;28;19924;-72
2023/08/13 04:17:00;;;;;;;;;;;;;;;20.88;49.54;100047.09;3152647;28;19935;-72
2023/08/13 04:18:32;;;;;;;;;;;;;;;20.91;49.43;100052.13;3152367;28;19924;-72
2023/08/13 04:20:03;;;;;;;;;;;;;;;20.93;49.43;100049.38;3152890;28;20099;-72
2023/08/13 04:21:35;;;;;;;;;;;;;;;20.94;49.63;100051.91;3152750;28;19986;-72
2023/08/13 04:23:05;;;;;;;;;;;;;;;20.94;49.39;100054.56;3152256;28;19974;-72
2023/08/13 04:24:37;;;;;;;;;;;;;;;20.95;49.48;100050.94;3152852;28;20377;-72
2023/08/13 04:26:10;;;;;;;;;;;;;;;20.95;49.74;100047.44;3137342;28;19971;-72
2023/08/13 04:27:41;;;;;;;;;;;;;;;20.96;49.75;100049.13;3149273;28;20397;-72
2023/08/13 04:29:12;;;;;;;;;;;;;;;20.96;49.59;100049.13;3151332;28;20080;-72
2023/08/13 04:30:43;;;;;;;;;;;;;;;20.96;49.65;100052.59;3142373;28;20015;-72
2023/08/13 04:32:14;;;;;;;;;;;;;;;20.96;49.77;100052.59;3149613;28;19981;-72
2023/08/13 04:33:45;;;;;;;;;;;;;;;20.98;49.73;100055.13;3149191;28;20001;-72
2023/08/13 04:35:17;;;;;;;;;;;;;;;20.99;49.69;100057.63;3152696;28;19928;-72
2023/08/13 04:36:47;;;;;;;;;;;;;;;21.02;49.67;100064.47;3152906;28;19923;-72
2023/08/13 04:38:19;;;;;;;;;;;;;;;21.05;49.51;100059.75;3146436;28;19963;-71
2023/08/13 04:39:50;;;;;;;;;;;;;;;21.07;49.62;100063.13;3152376;28;19991;-71
2023/08/13 04:41:23;;;;;;;;;;;;;;;21.07;49.58;100063.13;3153314;28;19952;-72
2023/08/13 04:42:54;;;;;;;;;;;;;;;21.09;49.49;100058.53;3150433;28;19989;-72
2023/08/13 04:44:25;;;;;;;;;;;;;;;21.12;49.54;100058.28;3135274;28;20441;-72
2023/08/13 04:45:56;;;;;;;;;;;;;;;21.14;49.67;100064.28;3155073;28;19924;-72
2023/08/13 04:47:27;;;;;;;;;;;;;;;21.17;49.54;100057.03;3154926;28;20359;-72
2023/08/13 04:48:59;;;;;;;;;;;;;;;21.18;49.42;100061.34;3147785;28;19924;-72
2023/08/13 04:50:29;;;;;;;;;;;;;;;21.18;49.38;100056.06;3142511;28;19931;-72
2023/08/13 04:52:01;;;;;;;;;;;;;;;21.17;49.53;100063.16;3154495;28;20440;-72
2023/08/13 04:53:31;;;;;;;;;;;;;;;21.20;49.58;100070.84;3151721;28;19925;-72
2023/08/13 04:55:03;;;;;;;;;;;;;;;21.21;49.51;100059.31;3152525;28;19988;-72
2023/08/13 04:56:36;;;;;;;;;;;;;;;21.23;49.49;100067.94;3146875;28;19924;-72
2023/08/13 04:58:07;;;;;;;;;;;;;;;21.26;49.65;100066.84;3147688;28;19950;-73
2023/08/13 04:59:38;;;;;;;;;;;;;;;21.28;49.33;100064.91;3155028;28;19923;-72
2023/08/13 05:01:09;;;;;;;;;;;;;;;21.31;49.49;100060.19;3154833;28;19985;-72
2023/08/13 05:02:40;;;;;;;;;;;;;;;21.35;49.24;100058.97;3154928;28;19924;-72
2023/08/13 05:04:12;;;;;;;;;;;;;;;21.39;49.24;100059.56;3154755;28;19976;-72
2023/08/13 05:05:42;;;;;;;;;;;;;;;21.43;49.29;100063.63;3155399;28;19928;-72
2023/08/13 05:07:14;;;;;;;;;;;;;;;21.44;49.45;100067.09;3154241;28;20456;-72
2023/08/13 05:08:45;;;;;;;;;;;;;;;21.45;49.51;100069.63;3145571;28;19989;-72
2023/08/13 05:10:16;;;;;;;;;;;;;;;21.47;49.54;100065.03;3154813;28;20026;-71
2023/08/13 05:11:48;;;;;;;;;;;;;;;21.52;49.19;100068.13;3150808;28;19981;-72
2023/08/13 05:13:20;;;;;;;;;;;;;;;21.56;49.25;100064.25;3155131;28;19924;-72
2023/08/13 05:14:52;;;;;;;;;;;;;;;21.57;49.21;100071.22;3154931;28;19931;-72
2023/08/13 05:16:22;;;;;;;;;;;;;;;21.61;49.00;100066.47;3154971;28;19931;-72
2023/08/13 05:17:54;;;;;;;;;;;;;;;21.65;49.42;100075.88;3155046;28;19951;-72
2023/08/13 05:19:24;;;;;;;;;;;;;;;21.68;49.17;100072.94;3154879;28;20040;-72
2023/08/13 05:20:56;;;;;;;;;;;;;;;21.76;49.04;100080.22;3154839;28;19924;-72
2023/08/13 05:22:28;;;;;;;;;;;;;;;21.84;48.93;100076.91;3154269;28;19985;-72
2023/08/13 05:23:58;;;;;;;;;;;;;;;21.91;49.04;100080.69;3154450;28;20366;-72
2023/08/13 05:25:30;;;;;;;;;;;;;;;21.98;49.05;100074.72;3154412;28;20025;-72
2023/08/13 05:27:03;;;;;;;;;;;;;;;22.07;48.68;100072.22;3149601;28;19924;-72
2023/08/13 05:28:35;;;;;;;;;;;;;;;22.15;48.49;100081.13;3154577;28;20452;-72
2023/08/13 05:30:06;;;;;;;;;;;;;;;22.24;48.58;100077.72;3154973;28;19997;-72
2023/08/13 05:31:37;;;;;;;;;;;;;;;22.30;48.60;100075.47;3154499;28;19930;-72
2023/08/13 05:33:08;;;;;;;;;;;;;;;22.33;48.56;100078.72;3151372;28;19930;-72
2023/08/13 05:34:39;;;;;;;;;;;;;;;22.39;48.44;100080.81;3154413;28;20444;-72
2023/08/13 05:36:10;;;;;;;;;;;;;;;22.47;48.39;100075.63;3149306;28;19928;-72
2023/08/13 05:37:42;;;;;;;;;;;;;;;22.55;48.27;100072.28;3148406;28;20664;-72
2023/08/13 05:39:12;;;;;;;;;;;;;;;22.65;48.18;100074.94;3154752;28;20437;-72
2023/08/13 05:40:44;;;;;;;;;;;;;;;22.77;48.13;100071.16;3150452;28;19928;-72
2023/08/13 05:42:17;;;;;;;;;;;;;;;22.87;48.08;100077.31;3154047;28;20265;-71
2023/08/13 05:43:49;;;;;;;;;;;;;;;22.95;48.00;100073.97;3146915;28;19928;-71
2023/08/13 05:45:19;;;;;;;;;;;;;;;23.06;47.52;100080.94;3143063;28;19932;-71
2023/08/13 05:46:51;;;;;;;;;;;;;;;23.14;47.60;100081.06;3150664;28;19924;-71
2023/08/13 05:48:21;;;;;;;;;;;;;;;23.23;47.36;100082.88;3154659;28;19924;-71
2023/08/13 05:49:53;;;;;;;;;;;;;;;23.33;47.45;100080.16;3150160;28;19928;-72
2023/08/13 05:51:24;;;;;;;;;;;;;;;23.47;47.09;100078.88;3147846;28;20440;-71
2023/08/13 05:52:55;;;;;;;;;;;;;;;23.65;46.71;100076.28;3150332;28;19927;-71
2023/08/13 05:54:27;;;;;;;;;;;;;;;23.80;46.32;100073.00;3154301;28;20345;-71
2023/08/13 05:55:58;;;;;;;;;;;;;;;23.91;46.27;100072.00;3148804;28;19924;-71
2023/08/13 05:57:31;;;;;;;;;;;;;;;23.98;45.82;100070.38;3154086;28;20727;-72
2023/08/13 05:59:02;;;;;;;;;;;;;;;23.98;45.82;100073.06;3154280;28;19985;-71
2023/08/13 06:00:33;;;;;;;;;;;;;;;24.03;45.54;100068.13;3154207;28;20030;-71
2023/08/13 06:02:04;;;;;;;;;;;;;;;24.37;44.99;100072.78;3154099;28;20010;-70
2023/08/13 06:03:36;;;;;;;;;;;;;;;24.83;43.86;100073.56;3153243;28;19924;-71
2023/08/13 06:05:06;;;;;;;;;;;;;;;25.08;43.56;100071.94;3153957;28;20749;-71
2023/08/13 06:06:38;;;;;;;;;;;;;;;25.11;43.40;100060.97;3154124;28;20053;-70
2023/08/13 06:08:09;;;;;;;;;;;;;;;25.06;43.35;100065.91;3153949;28;19924;-71
2023/08/13 06:09:40;;;;;;;;;;;;;;;25.04;43.45;100069.72;3153346;28;19971;-71
2023/08/13 06:11:12;;;;;;;;;;;;;;;25.01;43.52;100073.53;3150055;28;19924;-70
2023/08/13 06:12:45;;;;;;;;;;;;;;;25.01;43.64;100072.69;3154110;28;20474;-70
2023/08/13 06:14:17;;;;;;;;;;;;;;;25.01;44.00;100070.88;3153871;28;20412;-70
2023/08/13 06:15:47;;;;;;;;;;;;;;;25.05;43.93;100077.53;3148123;28;19931;-70
2023/08/13 06:17:19;;;;;;;;;;;;;;;25.05;44.06;100072.22;3147084;28;20422;-70
2023/08/13 06:18:50;;;;;;;;;;;;;;;25.05;44.01;100072.22;3148037;28;19924;-71
2023/08/13 06:20:21;;;;;;;;;;;;;;;25.01;43.95;100075.38;3154073;28;20006;-70
2023/08/13 06:21:52;;;;;;;;;;;;;;;24.98;43.86;100076.50;3153785;28;19973;-70
2023/08/13 06:23:24;;;;;;;;;;;;;;;25.00;44.06;100076.38;3153681;28;20444;-70
2023/08/13 06:24:55;;;;;;;;;;;;;;;25.07;44.22;100077.41;3149815;28;20056;-71
2023/08/13 06:26:26;;;;;;;;;;;;;;;25.15;43.79;100078.34;3153786;28;20455;-71
2023/08/13 06:27:59;;;;;;;;;;;;;;;25.23;43.92;100077.56;3153921;28;19923;-71
2023/08/13 06:29:29;;;;;;;;;;;;;;;25.27;43.67;100080.75;3154150;28;19924;-71
2023/08/13 06:31:02;;;;;;;;;;;;;;;25.25;43.86;100072.06;3153859;28;20404;-71
2023/08/13 06:32:32;;;;;;;;;;;;;;;25.28;43.63;100077.91;3145583;28;20518;-71
2023/08/13 06:34:04;;;;;;;;;;;;;;;25.37;43.67;100076.13;3151784;28;19924;-71
2023/08/13 06:35:35;;;;;;;;;;;;;;;25.43;43.28;100072.81;3153989;28;20173;-71
2023/08/13 06:37:06;;;;;;;;;;;;;;;25.50;43.28;100079.22;3151419;28;20475;-71
2023/08/13 06:38:37;;;;;;;;;;;;;;;25.57;43.42;100077.56;3149353;28;19923;-71
2023/08/13 06:40:10;;;;;;;;;;;;;;;25.61;43.08;100068.25;3149648;28;20334;-71
2023/08/13 06:41:40;;;;;;;;;;;;;;;25.70;42.92;100081.63;3150409;28;20014;-71
2023/08/13 06:43:13;;;;;;;;;;;;;;;25.77;43.12;100082.66;3151318;28;20372;-71
2023/08/13 06:44:44;;;;;;;;;;;;;;;25.87;42.96;100081.56;3145810;28;19924;-71
2023/08/13 06:46:16;;;;;;;;;;;;;;;25.90;42.52;100088.41;3152336;28;19938;-71
2023/08/13 06:47:47;;;;;;;;;;;;;;;25.92;42.61;100078.41;3154012;28;21030;-72
2023/08/13 06:49:18;;;;;;;;;;;;;;;25.94;42.43;100084.44;3145589;28;19924;-71
2023/08/13 06:50:54;;;;;;;;;;;;;;;25.97;42.02;100080.56;3153688;28;20010;-71
2023/08/13 06:52:25;;;;;;;;;;;;;;;25.95;42.33;100080.75;3153437;28;19934;-71
2023/08/13 06:53:56;;;;;;;;;;;;;;;26.04;42.00;100078.94;3149188;28;19924;-72
2023/08/13 06:55:27;;;;;;;;;;;;;;;26.09;42.19;100077.47;3153383;28;19924;-71
2023/08/13 06:56:58;;;;;;;;;;;;;;;26.11;41.58;100079.97;3153701;28;20363;-71
2023/08/13 06:58:30;;;;;;;;;;;;;;;26.12;41.75;100075.44;3153563;28;20324;-71
2023/08/13 07:00:03;;;;;;;;;;;;;;;26.15;41.91;100070.66;3150848;28;20330;-71
2023/08/13 07:01:34;;;;;;;;;;;;;;;26.15;41.59;100075.13;3150158;28;20396;-71
2023/08/13 07:03:06;;;;;;;;;;;;;;;26.21;41.64;100071.81;3153182;28;20062;-72
2023/08/13 07:04:37;;;;;;;;;;;;;;;26.20;41.81;100070.97;3152709;28;19928;-72
2023/08/13 07:06:09;;;;;;;;;;;;;;;26.23;41.44;100064.47;3153503;28;20418;-71
2023/08/13 07:07:40;;;;;;;;;;;;;;;26.26;41.45;100066.81;3153355;28;20425;-71
2023/08/13 07:09:11;;;;;;;;;;;;;;;26.27;41.68;100068.50;3148491;28;19924;-72
2023/08/13 07:10:42;;;;;;;;;;;;;;;26.31;41.66;100069.81;3153409;28;19924;-72
2023/08/13 07:12:13;;;;;;;;;;;;;;;26.35;41.33;100071.16;3153308;28;20172;-72
2023/08/13 07:13:47;;;;;;;;;;;;;;;26.39;41.23;100072.53;3153325;28;19930;-71
2023/08/13 07:15:19;;;;;;;;;;;;;;;26.46;41.38;100070.00;3141030;28;19930;-72
2023/08/13 07:16:50;;;;;;;;;;;;;;;26.57;41.03;100068.91;3142558;28;19928;-71
2023/08/13 07:18:21;;;;;;;;;;;;;;;26.69;40.96;100067.56;3153509;28;20395;-71
2023/08/13 07:19:53;;;;;;;;;;;;;;;26.81;40.73;100071.56;3153691;28;19924;-71
2023/08/13 07:21:24;;;;;;;;;;;;;;;26.82;40.29;100067.03;3153435;28;19928;-71
2023/08/13 07:22:58;;;;;;;;;;;;;;;26.82;40.52;100064.38;3151067;28;19928;-71
2023/08/13 07:24:29;;;;;;;;;;;;;;;26.83;40.31;100066.91;3140632;28;19924;-71
2023/08/13 07:26:00;;;;;;;;;;;;;;;26.85;40.06;100069.38;3140738;28;20362;-71
2023/08/13 07:27:32;;;;;;;;;;;;;;;26.83;39.97;100068.72;3140387;28;20035;-71
2023/08/13 07:29:06;;;;;;;;;;;;;;;26.91;40.19;100066.03;3139126;28;19979;-72
2023/08/13 07:30:37;;;;;;;;;;;;;;;27.03;40.25;100069.19;3140643;28;19924;-71
2023/08/13 07:32:09;;;;;;;;;;;;;;;27.17;39.73;100060.53;3140665;28;20320;-72
2023/08/13 07:33:39;;;;;;;;;;;;;;;27.30;39.47;100070.66;3135593;28;20050;-72
2023/08/13 07:35:12;;;;;;;;;;;;;;;27.44;39.76;100061.94;3140668;28;20586;-71
2023/08/13 07:36:42;;;;;;;;;;;;;;;27.48;39.28;100063.28;3140714;28;20433;-72
2023/08/13 07:38:14;;;;;;;;;;;;;;;27.51;39.28;100067.44;3136512;28;19969;-71
2023/08/13 07:39:44;;;;;;;;;;;;;;;27.56;38.99;100059.72;3140214;28;19924;-71
2023/08/13 07:41:16;;;;;;;;;;;;;;;27.62;39.15;100061.72;3137569;28;19962;-71
2023/08/13 07:42:47;;;;;;;;;;;;;;;27.70;39.18;100056.34;3135072;28;19925;-70
2023/08/13 07:44:20;;;;;;;;;;;;;;;27.76;38.63;100055.63;3130300;28;19924;-71
2023/08/13 07:45:50;;;;;;;;;;;;;;;27.78;38.73;100058.16;3128948;28;20364;-71
2023/08/13 07:47:22;;;;;;;;;;;;;;;27.78;38.11;100067.03;3140549;28;19924;-72
2023/08/13 07:48:53;;;;;;;;;;;;;;;27.78;38.20;100061.69;3134538;28;20077;-71
2023/08/13 07:50:24;;;;;;;;;;;;;;;27.80;37.83;100059.66;3135055;28;20420;-71
2023/08/13 07:51:55;;;;;;;;;;;;;;;27.82;37.21;100056.81;3138219;28;19928;-71